createdAt,value
2018-12-18T00:01:58.313Z,19.40
2018-12-18T00:04:29.124Z,20.40
2018-12-18T00:06:59.931Z,20.40
2018-12-18T00:09:28.761Z,19.87
2018-12-18T00:11:59.420Z,19.97
2018-12-18T00:14:28.298Z,21.30
2018-12-18T00:16:57.074Z,19.53
2018-12-18T00:19:25.841Z,23.33
2018-12-18T00:21:54.691Z,23.40
2018-12-18T00:24:23.543Z,21.30
2018-12-18T00:26:52.317Z,21.13
2018-12-18T00:29:21.079Z,21.13
2018-12-18T00:31:49.946Z,20.70
2018-12-18T00:34:18.703Z,21.23
2018-12-18T00:36:47.475Z,19.00
2018-12-18T00:39:16.240Z,18.57
2018-12-18T00:41:45.020Z,18.87
2018-12-18T00:44:13.792Z,18.90
2018-12-18T00:46:42.565Z,20.03
2018-12-18T00:49:11.335Z,19.03
2018-12-18T00:51:40.181Z,22.10
2018-12-18T00:54:08.957Z,21.40
2018-12-18T00:56:37.769Z,21.57
2018-12-18T00:59:06.517Z,22.60
2018-12-18T01:01:35.290Z,22.43
2018-12-18T01:04:04.145Z,25.97
2018-12-18T01:06:32.978Z,26.30
2018-12-18T01:09:01.821Z,26.97
2018-12-18T01:11:32.205Z,26.23
2018-12-18T01:14:02.125Z,25.83
2018-12-18T01:16:30.917Z,25.60
2018-12-18T01:18:59.676Z,30.73
2018-12-18T01:21:28.509Z,27.57
2018-12-18T01:23:57.270Z,28.27
2018-12-18T01:26:26.048Z,26.33
2018-12-18T01:28:54.820Z,28.50
2018-12-18T01:31:23.586Z,30.47
2018-12-18T01:33:52.357Z,26.07
2018-12-18T01:36:21.121Z,30.40
2018-12-18T01:38:49.885Z,31.20
2018-12-18T01:41:18.663Z,34.80
2018-12-18T01:43:47.517Z,36.27
2018-12-18T01:46:16.283Z,36.33
2018-12-18T01:48:45.057Z,36.60
2018-12-18T01:51:13.833Z,40.37
2018-12-18T01:53:42.620Z,38.07
2018-12-18T01:56:11.470Z,37.47
2018-12-18T01:58:40.221Z,39.50
2018-12-18T02:01:09.009Z,43.40
2018-12-18T02:03:37.794Z,39.90
2018-12-18T02:06:06.648Z,37.90
2018-12-18T02:08:35.418Z,42.20
2018-12-18T02:11:04.366Z,45.20
2018-12-18T02:13:33.208Z,39.20
2018-12-18T02:16:01.971Z,40.90
2018-12-18T02:18:30.742Z,40.30
2018-12-18T02:20:59.561Z,40.13
2018-12-18T02:23:28.619Z,41.33
2018-12-18T02:25:57.486Z,40.67
2018-12-18T02:28:26.320Z,41.30
2018-12-18T02:30:55.102Z,42.07
2018-12-18T02:33:23.954Z,41.77
2018-12-18T02:35:52.720Z,43.10
2018-12-18T02:38:21.519Z,41.63
2018-12-18T02:40:50.425Z,41.17
2018-12-18T02:43:19.332Z,41.07
2018-12-18T02:45:48.095Z,40.53
2018-12-18T02:48:17.442Z,39.90
2018-12-18T02:50:46.227Z,42.87
2018-12-18T02:53:15.006Z,40.30
2018-12-18T02:55:43.773Z,40.27
2018-12-18T02:58:12.536Z,38.23
2018-12-18T03:00:41.324Z,39.30
2018-12-18T03:03:10.117Z,39.50
2018-12-18T03:05:38.902Z,40.30
2018-12-18T03:08:07.753Z,37.30
2018-12-18T03:10:36.617Z,40.83
2018-12-18T03:13:05.469Z,43.73
2018-12-18T03:15:35.287Z,39.87
2018-12-18T03:18:04.178Z,43.50
2018-12-18T03:20:32.945Z,41.70
2018-12-18T03:23:02.826Z,44.00
2018-12-18T03:25:32.040Z,39.27
2018-12-18T03:28:00.818Z,43.07
2018-12-18T03:30:29.582Z,42.10
2018-12-18T03:32:58.786Z,41.63
2018-12-18T03:35:27.569Z,40.93
2018-12-18T03:37:56.467Z,43.23
2018-12-18T03:40:25.400Z,39.70
2018-12-18T03:42:54.295Z,39.03
2018-12-18T03:45:23.230Z,40.13
2018-12-18T03:47:52.104Z,37.40
2018-12-18T03:50:21.091Z,36.47
2018-12-18T03:52:49.931Z,37.47
2018-12-18T03:55:18.767Z,40.43
2018-12-18T03:57:49.521Z,43.43
2018-12-18T04:00:18.366Z,42.00
2018-12-18T04:02:47.250Z,42.67
2018-12-18T04:05:16.132Z,43.33
2018-12-18T04:07:45.122Z,45.17
2018-12-18T04:10:14.001Z,37.17
2018-12-18T04:12:42.794Z,40.80
2018-12-18T04:15:11.633Z,34.83
2018-12-18T04:17:40.483Z,38.87
2018-12-18T04:20:09.399Z,40.13
2018-12-18T04:22:38.175Z,39.77
2018-12-18T04:25:06.950Z,39.17
2018-12-18T04:27:35.741Z,37.90
2018-12-18T04:30:05.642Z,36.90
2018-12-18T04:32:34.480Z,41.47
2018-12-18T04:35:05.411Z,36.50
2018-12-18T04:37:34.246Z,38.93
2018-12-18T04:40:03.255Z,39.30
2018-12-18T04:42:32.167Z,41.23
2018-12-18T04:45:00.964Z,36.93
2018-12-18T04:47:29.791Z,37.37
2018-12-18T04:49:58.623Z,38.13
2018-12-18T04:52:28.483Z,36.30
2018-12-18T04:54:57.282Z,42.00
2018-12-18T04:57:26.454Z,39.73
2018-12-18T04:59:56.559Z,38.80
2018-12-18T05:02:25.772Z,41.73
2018-12-18T05:04:55.637Z,34.27
2018-12-18T05:07:26.698Z,36.17
2018-12-18T05:09:56.792Z,35.70
2018-12-18T05:12:25.691Z,37.20
2018-12-18T05:14:54.768Z,35.33
2018-12-18T05:17:23.623Z,32.10
2018-12-18T05:19:52.557Z,35.17
2018-12-18T05:22:21.938Z,33.47
2018-12-18T05:24:50.745Z,36.70
2018-12-18T05:27:19.505Z,35.30
2018-12-18T05:29:48.270Z,34.57
2018-12-18T05:32:18.176Z,35.60
2018-12-18T05:34:46.927Z,35.47
2018-12-18T05:37:15.784Z,36.40
2018-12-18T05:39:44.643Z,31.27
2018-12-18T05:42:13.395Z,34.67
2018-12-18T05:44:42.154Z,35.50
2018-12-18T05:47:10.992Z,37.15
2018-12-18T05:49:40.008Z,35.33
2018-12-18T05:52:10.060Z,31.97
2018-12-18T05:54:38.947Z,32.83
2018-12-18T05:57:07.893Z,29.93
2018-12-18T05:59:36.729Z,29.40
2018-12-18T06:02:05.922Z,27.67
2018-12-18T06:04:34.833Z,30.10
2018-12-18T06:07:03.741Z,28.73
2018-12-18T06:09:32.739Z,29.17
2018-12-18T06:12:01.591Z,30.47
2018-12-18T06:14:31.473Z,29.37
2018-12-18T06:17:00.303Z,31.37
2018-12-18T06:19:29.129Z,32.10
2018-12-18T06:21:57.991Z,27.70
2018-12-18T06:24:26.880Z,28.47
2018-12-18T06:26:55.734Z,29.87
2018-12-18T06:29:24.567Z,29.07
2018-12-18T06:31:55.324Z,30.03
2018-12-18T06:34:24.564Z,31.83
2018-12-18T06:36:53.492Z,30.83
2018-12-18T06:39:22.364Z,29.23
2018-12-18T06:41:51.466Z,28.87
2018-12-18T06:44:20.331Z,28.77
2018-12-18T06:46:49.202Z,29.43
2018-12-18T06:49:18.052Z,30.73
2018-12-18T06:51:47.776Z,31.23
2018-12-18T06:54:16.721Z,30.47
2018-12-18T06:56:45.980Z,29.53
2018-12-18T06:59:14.875Z,30.00
2018-12-18T07:01:43.770Z,32.57
2018-12-18T07:04:15.000Z,29.97
2018-12-18T07:06:45.020Z,29.30
2018-12-18T07:09:14.020Z,30.87
2018-12-18T07:11:42.960Z,29.57
2018-12-18T07:14:12.862Z,28.20
2018-12-18T07:16:41.720Z,29.60
2018-12-18T07:19:10.625Z,28.80
2018-12-18T07:21:41.133Z,30.00
2018-12-18T07:24:14.123Z,28.03
2018-12-18T07:26:41.150Z,28.37
2018-12-18T07:29:10.040Z,26.60
2018-12-18T07:31:38.863Z,25.27
2018-12-18T07:34:07.686Z,30.03
2018-12-18T07:36:36.504Z,25.60
2018-12-18T07:39:08.616Z,25.37
2018-12-18T07:41:37.429Z,25.30
2018-12-18T07:44:06.247Z,26.00
2018-12-18T07:46:35.076Z,25.13
2018-12-18T07:49:03.933Z,24.13
2018-12-18T07:51:32.780Z,22.93
2018-12-18T07:54:01.538Z,26.67
2018-12-18T07:56:30.292Z,26.20
2018-12-18T07:58:59.164Z,23.97
2018-12-18T08:01:27.991Z,21.70
2018-12-18T08:03:56.761Z,25.17
2018-12-18T08:06:25.533Z,22.77
2018-12-18T08:08:54.317Z,21.90
2018-12-18T08:11:23.061Z,24.13
2018-12-18T08:13:51.906Z,25.23
2018-12-18T08:16:20.738Z,22.43
2018-12-18T08:18:49.497Z,20.67
2018-12-18T08:21:18.365Z,19.27
2018-12-18T08:23:47.382Z,21.70
2018-12-18T08:26:16.149Z,19.00
2018-12-18T08:28:44.917Z,18.90
2018-12-18T08:31:13.690Z,20.90
2018-12-18T08:33:42.454Z,21.33
2018-12-18T08:36:11.210Z,18.93
2018-12-18T08:38:39.977Z,21.10
2018-12-18T08:41:08.848Z,19.37
2018-12-18T08:43:37.670Z,18.43
2018-12-18T08:46:10.242Z,17.90
2018-12-18T08:48:37.321Z,17.63
2018-12-18T08:51:06.090Z,17.27
2018-12-18T08:53:34.891Z,14.17
2018-12-18T08:56:03.693Z,14.77
2018-12-18T08:58:32.550Z,14.93
2018-12-18T09:01:01.332Z,14.97
2018-12-18T09:03:31.129Z,13.47
2018-12-18T09:05:59.915Z,14.77
2018-12-18T09:08:28.699Z,14.00
2018-12-18T09:10:57.564Z,12.80
2018-12-18T09:13:26.952Z,14.17
2018-12-18T09:15:58.022Z,11.80
2018-12-18T09:18:28.332Z,12.13
2018-12-18T09:23:32.910Z,11.00
2018-12-18T09:26:02.689Z,12.40
2018-12-18T09:28:31.476Z,11.97
2018-12-18T09:31:00.276Z,10.70
2018-12-18T09:33:30.102Z,11.63
2018-12-18T09:35:59.390Z,11.00
2018-12-18T09:38:33.584Z,10.77
2018-12-18T09:41:09.825Z,10.80
2018-12-18T09:44:47.182Z,11.93
2018-12-18T09:47:16.039Z,9.80
2018-12-18T09:49:44.893Z,9.90
2018-12-18T09:52:13.724Z,10.70
2018-12-18T09:54:42.894Z,10.27
2018-12-18T09:57:17.182Z,9.73
2018-12-18T09:59:46.016Z,9.53
2018-12-18T10:02:14.878Z,10.13
2018-12-18T10:04:44.664Z,9.90
2018-12-18T10:07:14.810Z,8.77
2018-12-18T10:09:44.071Z,9.17
2018-12-18T10:12:15.010Z,9.80
2018-12-18T10:14:43.821Z,11.23
2018-12-18T10:17:12.694Z,9.67
2018-12-18T10:19:41.458Z,11.17
2018-12-18T10:22:10.241Z,10.87
2018-12-18T10:24:39.019Z,10.63
2018-12-18T10:27:07.871Z,11.57
2018-12-18T10:29:36.630Z,10.07
2018-12-18T10:32:06.078Z,11.27
2018-12-18T10:34:35.318Z,10.90
2018-12-18T10:37:04.183Z,9.87
2018-12-18T10:39:32.948Z,8.23
2018-12-18T10:42:01.711Z,10.33
2018-12-18T10:44:31.458Z,11.97
2018-12-18T10:47:00.218Z,8.47
2018-12-18T10:49:28.987Z,9.73
2018-12-18T10:51:57.850Z,10.03
2018-12-18T10:54:26.714Z,9.90
2018-12-18T10:56:55.474Z,8.50
2018-12-18T10:59:24.362Z,7.70
2018-12-18T11:01:57.001Z,8.37
2018-12-18T11:04:25.863Z,8.70
2018-12-18T11:06:54.666Z,8.87
2018-12-18T11:09:23.573Z,8.97
2018-12-18T11:11:52.368Z,10.20
2018-12-18T11:14:22.261Z,9.53
2018-12-18T11:16:51.077Z,9.70
2018-12-18T11:19:19.853Z,8.87
2018-12-18T11:21:48.636Z,8.13
2018-12-18T11:24:17.476Z,9.00
2018-12-18T11:26:46.313Z,8.20
2018-12-18T11:29:15.239Z,8.27
2018-12-18T11:31:44.054Z,7.27
2018-12-18T11:34:12.873Z,7.10
2018-12-18T11:36:41.730Z,7.50
2018-12-18T11:39:10.538Z,7.63
2018-12-18T11:41:39.392Z,8.40
2018-12-18T11:44:09.351Z,8.90
2018-12-18T11:46:40.047Z,7.60
2018-12-18T11:49:09.938Z,7.70
2018-12-18T11:51:39.054Z,7.80
2018-12-18T11:54:08.247Z,8.20
2018-12-18T11:56:37.172Z,7.87
2018-12-18T11:59:06.391Z,6.60
2018-12-18T12:01:35.254Z,7.40
2018-12-18T12:04:04.169Z,7.37
2018-12-18T12:06:35.249Z,7.73
2018-12-18T12:09:06.664Z,7.43
2018-12-18T12:11:36.456Z,8.13
2018-12-18T12:14:05.348Z,7.53
2018-12-18T12:16:34.277Z,8.17
2018-12-18T12:19:03.453Z,7.43
2018-12-18T12:21:32.359Z,6.87
2018-12-18T12:24:01.229Z,7.97
2018-12-18T12:26:33.664Z,7.50
2018-12-18T12:29:02.606Z,7.23
2018-12-18T12:31:31.510Z,7.03
2018-12-18T12:34:00.327Z,7.10
2018-12-18T12:36:29.837Z,7.13
2018-12-18T12:39:00.077Z,5.53
2018-12-18T12:41:29.054Z,5.63
2018-12-18T12:43:57.886Z,6.13
2018-12-18T12:46:26.798Z,7.97
2018-12-18T12:48:56.161Z,6.47
2018-12-18T12:51:25.064Z,6.57
2018-12-18T12:53:53.830Z,6.63
2018-12-18T12:56:22.675Z,6.07
2018-12-18T12:58:51.472Z,6.10
2018-12-18T13:01:20.246Z,6.40
2018-12-18T13:03:49.041Z,5.60
2018-12-18T13:06:18.006Z,6.53
2018-12-18T13:08:46.826Z,7.40
2018-12-18T13:11:15.649Z,6.57
2018-12-18T13:13:44.471Z,5.63
2018-12-18T13:16:13.303Z,5.50
2018-12-18T13:18:42.140Z,5.20
2018-12-18T13:21:10.957Z,5.43
2018-12-18T13:23:39.768Z,3.80
2018-12-18T13:26:08.615Z,6.33
2018-12-18T13:28:37.409Z,5.80
2018-12-18T13:31:06.214Z,5.67
2018-12-18T13:33:35.039Z,5.87
2018-12-18T13:36:04.013Z,6.00
2018-12-18T13:38:32.828Z,5.27
2018-12-18T13:41:01.685Z,5.33
2018-12-18T13:43:30.509Z,5.67
2018-12-18T13:45:59.429Z,5.53
2018-12-18T13:48:28.308Z,5.87
2018-12-18T13:50:57.192Z,6.33
2018-12-18T13:53:26.006Z,6.03
2018-12-18T13:55:54.828Z,7.23
2018-12-18T13:58:23.687Z,6.73
2018-12-18T14:00:52.526Z,6.63
2018-12-18T14:03:21.357Z,6.90
2018-12-18T14:05:50.184Z,5.87
2018-12-18T14:08:19.084Z,6.03
2018-12-18T14:10:47.913Z,6.60
2018-12-18T14:13:16.757Z,5.87
2018-12-18T14:15:45.732Z,6.07
2018-12-18T14:18:14.550Z,5.77
2018-12-18T14:20:43.386Z,6.43
2018-12-18T14:23:12.199Z,6.50
2018-12-18T14:25:41.035Z,6.00
2018-12-18T14:28:09.913Z,5.93
2018-12-18T14:30:38.743Z,5.33
2018-12-18T14:33:07.833Z,5.27
2018-12-18T14:35:36.664Z,5.30
2018-12-18T14:38:06.506Z,5.67
2018-12-18T14:40:35.439Z,4.50
2018-12-18T14:43:04.365Z,5.50
2018-12-18T14:45:33.211Z,4.83
2018-12-18T14:48:02.034Z,6.43
2018-12-18T14:50:31.008Z,4.93
2018-12-18T14:52:59.849Z,5.63
2018-12-18T14:55:28.671Z,5.40
2018-12-18T14:57:57.565Z,5.30
2018-12-18T15:00:26.431Z,5.33
2018-12-18T15:02:55.255Z,5.30
2018-12-18T15:05:24.178Z,5.17
2018-12-18T15:07:53.066Z,5.33
2018-12-18T15:11:25.355Z,6.67
2018-12-18T15:13:57.233Z,4.67
2018-12-18T15:16:26.210Z,5.17
2018-12-18T15:18:55.069Z,4.90
2018-12-18T15:21:23.906Z,5.73
2018-12-18T15:23:52.813Z,5.93
2018-12-18T15:26:21.638Z,5.13
2018-12-18T15:28:50.536Z,5.17
2018-12-18T15:31:19.395Z,5.83
2018-12-18T15:33:48.207Z,5.10
2018-12-18T15:36:18.286Z,5.23
2018-12-18T15:38:47.479Z,5.50
2018-12-18T15:41:16.541Z,6.50
2018-12-18T15:43:45.376Z,5.47
2018-12-18T15:46:14.375Z,5.37
2018-12-18T15:48:43.194Z,5.20
2018-12-18T15:51:12.018Z,5.97
2018-12-18T15:53:41.301Z,5.97
2018-12-18T15:56:10.143Z,5.53
2018-12-18T15:58:38.948Z,6.13
2018-12-18T16:01:07.781Z,5.97
2018-12-18T16:03:36.601Z,5.97
2018-12-18T16:06:05.403Z,5.07
2018-12-18T16:08:34.224Z,6.80
2018-12-18T16:11:03.274Z,6.63
2018-12-18T16:13:32.145Z,7.37
2018-12-18T16:16:00.977Z,7.63
2018-12-18T16:18:29.784Z,6.40
2018-12-18T16:20:58.606Z,7.07
2018-12-18T16:23:27.410Z,6.90
2018-12-18T16:25:56.239Z,6.27
2018-12-18T16:28:25.045Z,5.57
2018-12-18T16:30:54.025Z,7.70
2018-12-18T16:33:22.984Z,6.07
2018-12-18T16:35:51.784Z,6.73
2018-12-18T16:38:20.588Z,7.37
2018-12-18T16:40:49.379Z,7.37
2018-12-18T16:43:18.221Z,6.57
2018-12-18T16:45:47.028Z,6.27
2018-12-18T16:48:15.866Z,6.53
2018-12-18T16:50:44.666Z,5.73
2018-12-18T16:53:13.488Z,6.70
2018-12-18T16:55:42.341Z,5.43
2018-12-18T16:58:11.144Z,4.77
2018-12-18T17:00:39.949Z,5.50
2018-12-18T17:03:08.884Z,6.00
2018-12-18T17:05:37.713Z,5.73
2018-12-18T17:08:06.694Z,5.47
2018-12-18T17:10:35.731Z,5.97
2018-12-18T17:13:04.629Z,4.63
2018-12-18T17:15:33.547Z,5.00
2018-12-18T17:18:02.378Z,6.10
2018-12-18T17:20:31.263Z,6.47
2018-12-18T17:23:00.060Z,5.40
2018-12-18T17:25:28.867Z,5.67
2018-12-18T17:27:57.684Z,5.73
2018-12-18T17:30:26.572Z,6.07
2018-12-18T17:32:55.759Z,6.20
2018-12-18T17:35:24.562Z,5.90
2018-12-18T17:37:53.386Z,4.10
2018-12-18T17:40:22.256Z,4.70
2018-12-18T17:42:51.573Z,5.53
2018-12-18T17:45:20.483Z,5.23
2018-12-18T17:47:49.290Z,5.10
2018-12-18T17:50:18.115Z,5.07
2018-12-18T17:52:46.922Z,4.57
2018-12-18T17:55:15.731Z,4.43
2018-12-18T17:57:44.645Z,6.27
2018-12-18T18:00:13.628Z,6.03
2018-12-18T18:02:42.519Z,4.73
2018-12-18T18:05:11.344Z,7.23
2018-12-18T18:07:43.072Z,4.97
2018-12-18T18:10:12.271Z,5.47
2018-12-18T18:12:44.163Z,3.60
2018-12-18T18:15:13.428Z,6.00
2018-12-18T18:17:42.333Z,4.70
2018-12-18T18:20:11.163Z,5.37
2018-12-18T18:22:40.134Z,4.80
2018-12-18T18:25:09.018Z,4.63
2018-12-18T18:27:38.894Z,4.67
2018-12-18T18:30:07.939Z,4.00
2018-12-18T18:32:36.833Z,7.73
2018-12-18T18:35:06.199Z,4.90
2018-12-18T18:37:35.097Z,7.37
2018-12-18T18:40:06.277Z,5.63
2018-12-18T18:42:35.139Z,4.87
2018-12-18T18:45:04.665Z,5.53
2018-12-18T18:47:33.467Z,5.07
2018-12-18T18:50:03.852Z,4.60
2018-12-18T18:52:32.923Z,5.53
2018-12-18T18:55:02.377Z,5.10
2018-12-18T18:57:32.249Z,4.40
2018-12-18T19:00:01.055Z,5.60
2018-12-18T19:02:29.985Z,4.93
2018-12-18T19:04:58.806Z,5.20
2018-12-18T19:07:27.690Z,5.97
2018-12-18T19:09:56.487Z,4.83
2018-12-18T19:12:25.285Z,4.80
2018-12-18T19:14:54.122Z,4.10
2018-12-18T19:17:22.917Z,4.27
2018-12-18T19:19:51.727Z,3.83
2018-12-18T19:22:20.515Z,4.23
2018-12-18T19:24:49.531Z,3.87
2018-12-18T19:27:18.443Z,5.00
2018-12-18T19:29:47.367Z,4.13
2018-12-18T19:32:16.212Z,4.13
2018-12-18T19:34:45.196Z,3.77
2018-12-18T19:37:14.025Z,4.93
2018-12-18T19:39:43.279Z,3.70
2018-12-18T19:42:12.421Z,3.80
2018-12-18T19:44:41.310Z,3.87
2018-12-18T19:47:10.658Z,4.83
2018-12-18T19:49:39.845Z,3.60
2018-12-18T19:52:08.717Z,4.23
2018-12-18T19:54:37.516Z,4.17
2018-12-18T19:57:06.446Z,4.03
2018-12-18T19:59:35.521Z,3.40
2018-12-18T20:02:04.438Z,3.67
2018-12-18T20:04:33.275Z,3.20
2018-12-18T20:07:02.431Z,3.60
2018-12-18T20:09:31.263Z,2.83
2018-12-18T20:12:00.092Z,3.63
2018-12-18T20:14:28.944Z,2.77
2018-12-18T20:16:58.782Z,2.60
2018-12-18T20:19:28.592Z,4.17
2018-12-18T20:21:57.754Z,3.37
2018-12-18T20:24:26.660Z,3.60
2018-12-18T20:26:55.478Z,3.47
2018-12-18T20:29:24.415Z,3.93
2018-12-18T20:31:53.214Z,5.03
2018-12-18T20:34:22.010Z,3.17
2018-12-18T20:36:50.847Z,4.37
2018-12-18T20:39:19.695Z,3.47
2018-12-18T20:41:48.608Z,4.63
2018-12-18T20:44:17.491Z,3.20
2018-12-18T20:46:46.429Z,3.83
2018-12-18T20:49:15.253Z,3.13
2018-12-18T20:51:44.053Z,3.37
2018-12-18T20:54:12.839Z,3.30
2018-12-18T20:56:41.686Z,3.87
2018-12-18T20:59:10.490Z,3.73
2018-12-18T21:01:39.291Z,3.67
2018-12-18T21:04:08.180Z,2.73
2018-12-18T21:06:37.075Z,2.90
2018-12-18T21:09:07.956Z,3.50
2018-12-18T21:11:37.864Z,4.70
2018-12-18T21:14:06.741Z,3.10
2018-12-18T21:16:35.597Z,3.13
2018-12-18T21:19:04.600Z,2.90
2018-12-18T21:21:34.443Z,3.53
2018-12-18T21:24:03.573Z,3.07
2018-12-18T21:26:32.342Z,3.17
2018-12-18T21:29:04.504Z,2.03
2018-12-18T21:31:33.372Z,2.13
2018-12-18T21:34:10.142Z,2.83
2018-12-18T21:36:39.222Z,2.80
2018-12-18T21:39:10.184Z,2.77
2018-12-18T21:41:39.006Z,2.80
2018-12-18T21:44:07.896Z,2.60
2018-12-18T21:46:42.323Z,3.43
2018-12-18T21:49:12.623Z,2.83
2018-12-18T21:51:42.500Z,2.33
2018-12-18T21:54:11.309Z,3.33
2018-12-18T21:56:40.110Z,2.67
2018-12-18T21:59:08.907Z,2.90
2018-12-18T22:01:38.813Z,2.47
2018-12-18T22:04:07.621Z,3.40
2018-12-18T22:06:36.411Z,2.70
2018-12-18T22:09:07.466Z,2.93
2018-12-18T22:11:37.230Z,3.23
2018-12-18T22:14:06.008Z,2.60
2018-12-18T22:16:34.776Z,3.27
2018-12-18T22:19:03.673Z,3.37
2018-12-18T22:21:32.486Z,3.00
2018-12-18T22:24:01.275Z,3.00
2018-12-18T22:26:30.081Z,3.10
2018-12-18T22:28:58.900Z,2.93
2018-12-18T22:31:27.808Z,3.37
2018-12-18T22:33:56.590Z,3.23
2018-12-18T22:36:25.551Z,3.47
2018-12-18T22:38:54.330Z,3.63
2018-12-18T22:41:23.229Z,3.40
2018-12-18T22:43:52.086Z,3.00
2018-12-18T22:46:20.969Z,3.77
2018-12-18T22:48:49.806Z,5.10
2018-12-18T22:51:18.633Z,3.83
2018-12-18T22:53:47.528Z,3.53
2018-12-18T22:56:16.333Z,3.33
2018-12-18T22:58:45.153Z,3.03
2018-12-18T23:01:17.929Z,3.53
2018-12-18T23:03:46.888Z,3.50
2018-12-18T23:06:15.683Z,3.70
2018-12-18T23:08:50.210Z,3.40
2018-12-18T23:11:15.553Z,3.07
2018-12-18T23:13:44.445Z,3.20
2018-12-18T23:16:13.339Z,5.73
2018-12-18T23:18:42.153Z,3.37
2018-12-18T23:21:11.053Z,3.97
2018-12-18T23:23:40.428Z,3.73
2018-12-18T23:26:09.325Z,4.77
2018-12-18T23:28:39.321Z,4.33
2018-12-18T23:31:08.119Z,4.63
2018-12-18T23:33:37.261Z,5.00
2018-12-18T23:36:06.154Z,4.27
2018-12-18T23:38:34.992Z,4.93
2018-12-18T23:41:03.891Z,4.13
2018-12-18T23:43:32.694Z,4.13
2018-12-18T23:46:01.643Z,3.87
2018-12-18T23:48:30.617Z,4.10
2018-12-18T23:50:59.448Z,4.37
2018-12-18T23:53:28.280Z,4.57
2018-12-18T23:55:57.075Z,4.73
2018-12-18T23:58:26.116Z,5.13
